SUD1A VQPR-ZULS
Flight info
| Callsign | SUD1A |
|---|---|
| Flight time | 0h 46m |
| Altitude | 36000 |
| Route | SUBSU DCT BGD DCT TUMLI/N0455F370 DCT NONIM/K0837S1130 DCT RKZ DCT LXA |
| Aircraft | A320/M-SDFGHILORVWY/S |
Departure
| Time | 2026-04-22 12:14 |
|---|---|
| Airport | Paro International Airport (VQPR) |
Arrival
| Time | 2026-04-22 13:01 |
|---|---|
| Airport | Lhasa Gonggar International Airport (ZULS) |
| Time | Latitude | Longitude | Altitude | Speed | Heading |
|---|---|---|---|---|---|
| 2026-04-22 12:04 | 27.40538 | 89.42170 | 7355 ft | 0 kts | 240° |
| 2026-04-22 12:08 | 27.40545 | 89.42183 | 7353 ft | 3 kts | 236° |
| 2026-04-22 12:09 | 27.40557 | 89.42201 | 7354 ft | 3 kts | 224° |
| 2026-04-22 12:09 | 27.40573 | 89.42215 | 7354 ft | 3 kts | 209° |
| 2026-04-22 12:09 | 27.40582 | 89.42221 | 7354 ft | 0 kts | 204° |
| 2026-04-22 12:11 | 27.40534 | 89.42234 | 7352 ft | 14 kts | 152° |
| 2026-04-22 12:11 | 27.40445 | 89.42290 | 7349 ft | 16 kts | 150° |
| 2026-04-22 12:11 | 27.40344 | 89.42354 | 7345 ft | 18 kts | 150° |
| 2026-04-22 12:11 | 27.40228 | 89.42429 | 7341 ft | 21 kts | 150° |
| 2026-04-22 12:12 | 27.40093 | 89.42514 | 7337 ft | 24 kts | 150° |
| 2026-04-22 12:12 | 27.39942 | 89.42612 | 7332 ft | 26 kts | 150° |
| 2026-04-22 12:12 | 27.39775 | 89.42717 | 7327 ft | 29 kts | 149° |
| 2026-04-22 12:12 | 27.39624 | 89.42813 | 7323 ft | 19 kts | 150° |
| 2026-04-22 12:13 | 27.39501 | 89.42892 | 7319 ft | 22 kts | 150° |
| 2026-04-22 12:13 | 27.39428 | 89.42991 | 7314 ft | 17 kts | 74° |
| 2026-04-22 12:13 | 27.39478 | 89.43009 | 7315 ft | 5 kts | 330° |
| 2026-04-22 12:13 | 27.39480 | 89.43008 | 7315 ft | 0 kts | 330° |
| 2026-04-22 12:14 | 27.39599 | 89.42932 | 7321 ft | 56 kts | 330° |
| 2026-04-22 12:14 | 27.40161 | 89.42575 | 7337 ft | 130 kts | 330° |
| 2026-04-22 12:14 | 27.41130 | 89.41954 | 7427 ft | 183 kts | 330° |
| 2026-04-22 12:14 | 27.42227 | 89.41309 | 8487 ft | 174 kts | 335° |
| 2026-04-22 12:15 | 27.43367 | 89.40875 | 9251 ft | 173 kts | 348° |
| 2026-04-22 12:15 | 27.44552 | 89.40532 | 10075 ft | 174 kts | 334° |
| 2026-04-22 12:15 | 27.45525 | 89.39725 | 10610 ft | 186 kts | 314° |
| 2026-04-22 12:15 | 27.46191 | 89.38414 | 10823 ft | 205 kts | 286° |
| 2026-04-22 12:16 | 27.46703 | 89.36833 | 10928 ft | 227 kts | 303° |
| 2026-04-22 12:16 | 27.47722 | 89.35350 | 11098 ft | 252 kts | 308° |
| 2026-04-22 12:16 | 27.48885 | 89.33757 | 11350 ft | 276 kts | 316° |
| 2026-04-22 12:16 | 27.50511 | 89.32461 | 11570 ft | 299 kts | 330° |
| 2026-04-22 12:17 | 27.52465 | 89.31427 | 11779 ft | 323 kts | 342° |
| 2026-04-22 12:17 | 27.54639 | 89.30715 | 12593 ft | 318 kts | 345° |
| 2026-04-22 12:17 | 27.56704 | 89.30083 | 14128 ft | 297 kts | 345° |
| 2026-04-22 12:17 | 27.58634 | 89.29484 | 15078 ft | 280 kts | 344° |
| 2026-04-22 12:18 | 27.60432 | 89.28675 | 15858 ft | 278 kts | 329° |
| 2026-04-22 12:18 | 27.62022 | 89.27428 | 16511 ft | 279 kts | 323° |
| 2026-04-22 12:18 | 27.63392 | 89.25875 | 17142 ft | 282 kts | 302° |
| 2026-04-22 12:18 | 27.64058 | 89.23793 | 17706 ft | 287 kts | 276° |
| 2026-04-22 12:19 | 27.64112 | 89.21540 | 18433 ft | 288 kts | 271° |
| 2026-04-22 12:19 | 27.63828 | 89.19302 | 19034 ft | 293 kts | 253° |
| 2026-04-22 12:19 | 27.62815 | 89.17295 | 19553 ft | 300 kts | 231° |
| 2026-04-22 12:19 | 27.61456 | 89.15493 | 19994 ft | 301 kts | 243° |
| 2026-04-22 12:20 | 27.60857 | 89.13292 | 20488 ft | 294 kts | 274° |
| 2026-04-22 12:20 | 27.61239 | 89.11050 | 20965 ft | 292 kts | 289° |
| 2026-04-22 12:20 | 27.61770 | 89.08824 | 21422 ft | 296 kts | 286° |
| 2026-04-22 12:20 | 27.62219 | 89.06543 | 21918 ft | 300 kts | 284° |
| 2026-04-22 12:21 | 27.62721 | 89.04259 | 22402 ft | 301 kts | 296° |
| 2026-04-22 12:21 | 27.63842 | 89.02295 | 22845 ft | 299 kts | 317° |
| 2026-04-22 12:21 | 27.65539 | 89.00966 | 23290 ft | 299 kts | 339° |
| 2026-04-22 12:21 | 27.67570 | 89.00481 | 23735 ft | 302 kts | 1° |
| 2026-04-22 12:22 | 27.69674 | 89.00737 | 24102 ft | 306 kts | 7° |
| 2026-04-22 12:22 | 27.71792 | 89.01080 | 24499 ft | 309 kts | 7° |
| 2026-04-22 12:22 | 27.73933 | 89.01426 | 24883 ft | 312 kts | 7° |
| 2026-04-22 12:22 | 27.76094 | 89.01767 | 25273 ft | 315 kts | 7° |
| 2026-04-22 12:23 | 27.78273 | 89.02110 | 25689 ft | 317 kts | 7° |
| 2026-04-22 12:23 | 27.80432 | 89.02451 | 26108 ft | 318 kts | 7° |
| 2026-04-22 12:23 | 27.82647 | 89.02800 | 26360 ft | 327 kts | 7° |
| 2026-04-22 12:23 | 27.84944 | 89.03158 | 26483 ft | 339 kts | 7° |
| 2026-04-22 12:24 | 27.87316 | 89.03527 | 26609 ft | 350 kts | 6° |
| 2026-04-22 12:24 | 27.89771 | 89.03910 | 26729 ft | 362 kts | 6° |
| 2026-04-22 12:24 | 27.92305 | 89.04309 | 26859 ft | 374 kts | 6° |
| 2026-04-22 12:24 | 27.94920 | 89.04723 | 26983 ft | 385 kts | 6° |
| 2026-04-22 12:25 | 27.97609 | 89.05150 | 27109 ft | 396 kts | 6° |
| 2026-04-22 12:25 | 28.00373 | 89.05589 | 27236 ft | 406 kts | 6° |
| 2026-04-22 12:25 | 28.03200 | 89.06036 | 27354 ft | 415 kts | 6° |
| 2026-04-22 12:25 | 28.06086 | 89.06489 | 27487 ft | 423 kts | 6° |
| 2026-04-22 12:26 | 28.09024 | 89.06949 | 27606 ft | 430 kts | 6° |
| 2026-04-22 12:26 | 28.12021 | 89.07417 | 27734 ft | 437 kts | 6° |
| 2026-04-22 12:26 | 28.15055 | 89.07895 | 27885 ft | 443 kts | 6° |
| 2026-04-22 12:26 | 28.18124 | 89.08385 | 28104 ft | 447 kts | 6° |
| 2026-04-22 12:27 | 28.21210 | 89.08878 | 28377 ft | 450 kts | 6° |
| 2026-04-22 12:27 | 28.24318 | 89.09373 | 28632 ft | 452 kts | 6° |
| 2026-04-22 12:27 | 28.27437 | 89.09867 | 28889 ft | 454 kts | 6° |
| 2026-04-22 12:27 | 28.30579 | 89.10362 | 29137 ft | 457 kts | 6° |
| 2026-04-22 12:28 | 28.33735 | 89.10860 | 29347 ft | 459 kts | 6° |
| 2026-04-22 12:28 | 28.36905 | 89.11364 | 29579 ft | 461 kts | 6° |
| 2026-04-22 12:28 | 28.40089 | 89.11870 | 29811 ft | 463 kts | 6° |
| 2026-04-22 12:28 | 28.43280 | 89.12377 | 30081 ft | 463 kts | 6° |
| 2026-04-22 12:29 | 28.46473 | 89.12886 | 30371 ft | 463 kts | 6° |
| 2026-04-22 12:29 | 28.49663 | 89.13395 | 30633 ft | 463 kts | 6° |
| 2026-04-22 12:29 | 28.52853 | 89.13904 | 30904 ft | 463 kts | 6° |
| 2026-04-22 12:29 | 28.56042 | 89.14411 | 31141 ft | 463 kts | 6° |
| 2026-04-22 12:30 | 28.62422 | 89.15425 | 31672 ft | 463 kts | 6° |
| 2026-04-22 12:30 | 28.65608 | 89.15931 | 31951 ft | 463 kts | 6° |
| 2026-04-22 12:30 | 28.68795 | 89.16439 | 32219 ft | 462 kts | 5° |
| 2026-04-22 12:31 | 28.71978 | 89.16949 | 32497 ft | 462 kts | 5° |
| 2026-04-22 12:31 | 28.75160 | 89.17460 | 32778 ft | 462 kts | 5° |
| 2026-04-22 12:31 | 28.78340 | 89.17971 | 33025 ft | 461 kts | 5° |
| 2026-04-22 12:31 | 28.81520 | 89.18479 | 33293 ft | 462 kts | 5° |
| 2026-04-22 12:32 | 28.84700 | 89.18985 | 33562 ft | 462 kts | 5° |
| 2026-04-22 12:32 | 28.91066 | 89.20001 | 34053 ft | 462 kts | 5° |
| 2026-04-22 12:32 | 28.94253 | 89.20515 | 34275 ft | 462 kts | 5° |
| 2026-04-22 12:33 | 28.97435 | 89.21027 | 34562 ft | 461 kts | 4° |
| 2026-04-22 12:33 | 29.00611 | 89.21537 | 34836 ft | 460 kts | 4° |
| 2026-04-22 12:33 | 29.03773 | 89.22044 | 35033 ft | 459 kts | 4° |
| 2026-04-22 12:33 | 29.06940 | 89.22552 | 35254 ft | 459 kts | 4° |
| 2026-04-22 12:34 | 29.10102 | 89.23061 | 35470 ft | 459 kts | 4° |
| 2026-04-22 12:34 | 29.13264 | 89.23572 | 35617 ft | 459 kts | 4° |
| 2026-04-22 12:34 | 29.16426 | 89.24083 | 35812 ft | 459 kts | 3° |
| 2026-04-22 12:34 | 29.19593 | 89.24592 | 35899 ft | 460 kts | 3° |
| 2026-04-22 12:35 | 29.25820 | 89.26410 | 35920 ft | 472 kts | 25° |
| 2026-04-22 12:35 | 29.28479 | 89.28560 | 35910 ft | 479 kts | 41° |
| 2026-04-22 12:35 | 29.30570 | 89.31546 | 35912 ft | 485 kts | 59° |
| 2026-04-22 12:36 | 29.31861 | 89.35120 | 35913 ft | 489 kts | 76° |
| 2026-04-22 12:36 | 29.32268 | 89.39025 | 35943 ft | 489 kts | 89° |
| 2026-04-22 12:36 | 29.32338 | 89.46793 | 35940 ft | 491 kts | 90° |
| 2026-04-22 12:37 | 29.32382 | 89.54669 | 35978 ft | 491 kts | 90° |
| 2026-04-22 12:37 | 29.32423 | 89.62452 | 35979 ft | 492 kts | 89° |
| 2026-04-22 12:38 | 29.32467 | 89.70342 | 36015 ft | 492 kts | 90° |
| 2026-04-22 12:38 | 29.32509 | 89.76854 | 36021 ft | 492 kts | 90° |
| 2026-04-22 12:39 | 29.32574 | 89.88616 | 36024 ft | 492 kts | 90° |
| 2026-04-22 12:40 | 29.32610 | 89.97728 | 36027 ft | 492 kts | 90° |
| 2026-04-22 12:40 | 29.32631 | 90.05572 | 36040 ft | 493 kts | 90° |
| 2026-04-22 12:41 | 29.32647 | 90.12156 | 36024 ft | 494 kts | 90° |
| 2026-04-22 12:41 | 29.32661 | 90.20041 | 36033 ft | 495 kts | 90° |
| 2026-04-22 12:42 | 29.32481 | 90.27937 | 36033 ft | 496 kts | 93° |
| 2026-04-22 12:42 | 29.32129 | 90.35830 | 36032 ft | 496 kts | 94° |
| 2026-04-22 12:43 | 29.31785 | 90.43733 | 36027 ft | 496 kts | 93° |
| 2026-04-22 12:43 | 29.31631 | 90.47691 | 35141 ft | 501 kts | 93° |
| 2026-04-22 12:43 | 29.31486 | 90.51717 | 34052 ft | 508 kts | 93° |
| 2026-04-22 12:43 | 29.31350 | 90.55744 | 33106 ft | 505 kts | 92° |
| 2026-04-22 12:44 | 29.31214 | 90.59707 | 32115 ft | 504 kts | 92° |
| 2026-04-22 12:44 | 29.31067 | 90.63772 | 31041 ft | 504 kts | 92° |
| 2026-04-22 12:44 | 29.30920 | 90.67727 | 30013 ft | 504 kts | 91° |
| 2026-04-22 12:44 | 29.30769 | 90.71654 | 29509 ft | 479 kts | 92° |
| 2026-04-22 12:45 | 29.30622 | 90.75352 | 29358 ft | 451 kts | 91° |
| 2026-04-22 12:45 | 29.30484 | 90.78833 | 29193 ft | 425 kts | 91° |
| 2026-04-22 12:45 | 29.30358 | 90.82128 | 29060 ft | 406 kts | 91° |
| 2026-04-22 12:45 | 29.30237 | 90.85319 | 28845 ft | 397 kts | 91° |
| 2026-04-22 12:46 | 29.30116 | 90.88459 | 28477 ft | 392 kts | 91° |
| 2026-04-22 12:46 | 29.29993 | 90.91565 | 28071 ft | 389 kts | 91° |
| 2026-04-22 12:46 | 29.29869 | 90.94647 | 27532 ft | 388 kts | 91° |
| 2026-04-22 12:46 | 29.29746 | 90.97751 | 26728 ft | 388 kts | 91° |
| 2026-04-22 12:47 | 29.29517 | 91.00730 | 26606 ft | 365 kts | 99° |
| 2026-04-22 12:47 | 29.29061 | 91.03571 | 26236 ft | 360 kts | 99° |
| 2026-04-22 12:47 | 29.28602 | 91.06366 | 25629 ft | 354 kts | 99° |
| 2026-04-22 12:47 | 29.28149 | 91.09107 | 25156 ft | 347 kts | 99° |
| 2026-04-22 12:48 | 29.27704 | 91.11802 | 24510 ft | 342 kts | 98° |
| 2026-04-22 12:48 | 29.27270 | 91.14441 | 23955 ft | 333 kts | 98° |
| 2026-04-22 12:48 | 29.26844 | 91.17032 | 23533 ft | 329 kts | 99° |
| 2026-04-22 12:48 | 29.26426 | 91.19584 | 23050 ft | 323 kts | 99° |
| 2026-04-22 12:49 | 29.26013 | 91.22103 | 22624 ft | 320 kts | 99° |
| 2026-04-22 12:49 | 29.25601 | 91.24607 | 22230 ft | 318 kts | 99° |
| 2026-04-22 12:49 | 29.25193 | 91.27079 | 21807 ft | 314 kts | 98° |
| 2026-04-22 12:49 | 29.24786 | 91.29525 | 21400 ft | 311 kts | 98° |
| 2026-04-22 12:50 | 29.24384 | 91.31942 | 21006 ft | 308 kts | 98° |
| 2026-04-22 12:50 | 29.23984 | 91.34338 | 20608 ft | 304 kts | 99° |
| 2026-04-22 12:50 | 29.23590 | 91.36698 | 20215 ft | 300 kts | 96° |
| 2026-04-22 12:50 | 29.23529 | 91.39024 | 19937 ft | 287 kts | 72° |
| 2026-04-22 12:51 | 29.24433 | 91.40983 | 19736 ft | 277 kts | 40° |
| 2026-04-22 12:51 | 29.26048 | 91.42095 | 19557 ft | 267 kts | 12° |
| 2026-04-22 12:51 | 29.27799 | 91.42146 | 19355 ft | 242 kts | 345° |
| 2026-04-22 12:51 | 29.29242 | 91.41338 | 19158 ft | 224 kts | 321° |
| 2026-04-22 12:52 | 29.30181 | 91.40014 | 19000 ft | 209 kts | 298° |
| 2026-04-22 12:52 | 29.30563 | 91.38472 | 18849 ft | 197 kts | 276° |
| 2026-04-22 12:52 | 29.30505 | 91.36909 | 18640 ft | 194 kts | 274° |
| 2026-04-22 12:52 | 29.30500 | 91.35376 | 18407 ft | 193 kts | 270° |
| 2026-04-22 12:53 | 29.30399 | 91.33878 | 18172 ft | 185 kts | 272° |
| 2026-04-22 12:53 | 29.30350 | 91.32417 | 17905 ft | 182 kts | 273° |
| 2026-04-22 12:53 | 29.30324 | 91.30986 | 17617 ft | 182 kts | 274° |
| 2026-04-22 12:53 | 29.30305 | 91.29526 | 17352 ft | 181 kts | 274° |
| 2026-04-22 12:54 | 29.30288 | 91.28087 | 17107 ft | 181 kts | 273° |
| 2026-04-22 12:54 | 29.30271 | 91.26671 | 16872 ft | 180 kts | 273° |
| 2026-04-22 12:54 | 29.30254 | 91.25239 | 16640 ft | 179 kts | 273° |
| 2026-04-22 12:54 | 29.30236 | 91.23790 | 16400 ft | 180 kts | 273° |
| 2026-04-22 12:55 | 29.30219 | 91.22381 | 16165 ft | 179 kts | 273° |
| 2026-04-22 12:55 | 29.30202 | 91.20960 | 15947 ft | 178 kts | 273° |
| 2026-04-22 12:55 | 29.30185 | 91.19545 | 15724 ft | 178 kts | 272° |
| 2026-04-22 12:55 | 29.30167 | 91.18131 | 15494 ft | 177 kts | 272° |
| 2026-04-22 12:56 | 29.30150 | 91.16728 | 15275 ft | 176 kts | 273° |
| 2026-04-22 12:56 | 29.30132 | 91.15326 | 15061 ft | 176 kts | 273° |
| 2026-04-22 12:56 | 29.30115 | 91.13928 | 14834 ft | 176 kts | 271° |
| 2026-04-22 12:56 | 29.30097 | 91.12520 | 14621 ft | 177 kts | 272° |
| 2026-04-22 12:57 | 29.30078 | 91.11105 | 14406 ft | 178 kts | 272° |
| 2026-04-22 12:57 | 29.30060 | 91.09690 | 14194 ft | 177 kts | 272° |
| 2026-04-22 12:57 | 29.30042 | 91.08279 | 13980 ft | 177 kts | 274° |
| 2026-04-22 12:57 | 29.30023 | 91.06867 | 13784 ft | 178 kts | 271° |
| 2026-04-22 12:58 | 29.30004 | 91.05455 | 13622 ft | 176 kts | 272° |
| 2026-04-22 12:58 | 29.29985 | 91.04058 | 13458 ft | 175 kts | 270° |
| 2026-04-22 12:58 | 29.29966 | 91.02666 | 13298 ft | 174 kts | 270° |
| 2026-04-22 12:58 | 29.29948 | 91.01285 | 13098 ft | 173 kts | 270° |
| 2026-04-22 12:59 | 29.29929 | 90.99908 | 12855 ft | 173 kts | 269° |
| 2026-04-22 12:59 | 29.29910 | 90.98536 | 12561 ft | 172 kts | 270° |
| 2026-04-22 12:59 | 29.29891 | 90.97169 | 12267 ft | 171 kts | 271° |
| 2026-04-22 12:59 | 29.29872 | 90.95800 | 11983 ft | 173 kts | 270° |
| 2026-04-22 13:00 | 29.29853 | 90.94426 | 11738 ft | 173 kts | 271° |
| 2026-04-22 13:00 | 29.29834 | 90.93064 | 11516 ft | 169 kts | 272° |
| 2026-04-22 13:00 | 29.29818 | 90.91845 | 11510 ft | 132 kts | 269° |
| 2026-04-22 13:00 | 29.29805 | 90.90995 | 11531 ft | 82 kts | 269° |
| 2026-04-22 13:01 | 29.29788 | 90.90535 | 11529 ft | 43 kts | 258° |
| 2026-04-22 13:01 | 29.29711 | 90.90337 | 11525 ft | 21 kts | 248° |
| 2026-04-22 13:01 | 29.29644 | 90.90191 | 11528 ft | 21 kts | 246° |
| 2026-04-22 13:01 | 29.29621 | 90.90035 | 11524 ft | 17 kts | 242° |
| 2026-04-22 13:02 | 29.29522 | 90.90033 | 11530 ft | 15 kts | 133° |
| 2026-04-22 13:02 | 29.29452 | 90.90084 | 11526 ft | 8 kts | 180° |
| 2026-04-22 13:02 | 29.29441 | 90.90084 | 11525 ft | 0 kts | 179° |